createdAt,value
2017-10-20T00:01:18.399Z,39.10
2017-10-20T00:03:45.463Z,39.60
2017-10-20T00:06:11.583Z,38.80
2017-10-20T00:08:37.692Z,38.70
2017-10-20T00:14:00.766Z,38.60
2017-10-20T00:16:27.051Z,38.60
2017-10-20T00:18:53.334Z,39.00
2017-10-20T00:21:19.599Z,38.20
2017-10-20T00:23:45.905Z,39.00
2017-10-20T00:26:12.291Z,38.10
2017-10-20T00:28:38.560Z,38.20
2017-10-20T00:31:04.874Z,38.30
2017-10-20T00:33:32.918Z,37.40
2017-10-20T00:35:59.212Z,37.40
2017-10-20T00:38:25.524Z,36.70
2017-10-20T00:40:52.506Z,36.40
2017-10-20T00:43:18.770Z,36.60
2017-10-20T00:45:46.136Z,36.20
2017-10-20T00:48:12.983Z,36.30
2017-10-20T00:50:39.083Z,36.20
2017-10-20T00:53:05.901Z,36.30
2017-10-20T00:55:31.978Z,36.10
2017-10-20T00:57:58.068Z,35.50
2017-10-20T01:00:24.902Z,35.60
2017-10-20T01:02:51.005Z,35.50
2017-10-20T01:05:17.288Z,35.80
2017-10-20T01:07:43.571Z,35.00
2017-10-20T01:10:09.890Z,35.00
2017-10-20T01:12:36.142Z,35.40
2017-10-20T01:15:02.468Z,36.00
2017-10-20T01:17:28.774Z,35.90
2017-10-20T01:19:55.060Z,36.00
2017-10-20T01:22:21.367Z,36.00
2017-10-20T01:24:48.407Z,36.40
2017-10-20T01:27:15.472Z,36.60
2017-10-20T01:29:42.299Z,36.60
2017-10-20T01:32:08.579Z,36.60
2017-10-20T01:34:35.879Z,36.70
2017-10-20T01:37:02.709Z,37.20
2017-10-20T01:39:28.808Z,37.20
2017-10-20T01:41:54.901Z,37.80
2017-10-20T01:44:20.989Z,37.20
2017-10-20T01:46:47.082Z,37.30
2017-10-20T01:49:13.165Z,37.20
2017-10-20T01:51:39.487Z,38.00
2017-10-20T01:54:06.515Z,37.40
2017-10-20T01:56:33.401Z,37.30
2017-10-20T01:58:59.485Z,37.20
2017-10-20T02:01:26.334Z,37.30
2017-10-20T02:03:52.420Z,36.90
2017-10-20T02:06:19.547Z,36.70
2017-10-20T02:08:45.658Z,36.60
2017-10-20T02:11:11.785Z,37.50
2017-10-20T02:13:39.145Z,36.30
2017-10-20T02:16:05.448Z,35.50
2017-10-20T02:18:32.459Z,35.50
2017-10-20T02:20:59.330Z,35.20
2017-10-20T02:23:25.455Z,35.20
2017-10-20T02:25:51.558Z,35.40
2017-10-20T02:28:18.395Z,35.40
2017-10-20T02:30:44.466Z,35.40
2017-10-20T02:33:10.771Z,35.10
2017-10-20T02:35:37.851Z,35.40
2017-10-20T02:38:03.934Z,35.40
2017-10-20T02:40:30.941Z,34.90
2017-10-20T02:42:57.079Z,35.10
2017-10-20T02:45:23.366Z,34.10
2017-10-20T02:47:49.474Z,34.70
2017-10-20T02:50:16.476Z,34.30
2017-10-20T02:52:42.844Z,34.60
2017-10-20T02:55:09.141Z,33.50
2017-10-20T02:57:36.167Z,35.40
2017-10-20T03:00:02.363Z,34.80
2017-10-20T03:02:28.649Z,34.50
2017-10-20T03:04:54.938Z,34.60
2017-10-20T03:07:21.242Z,34.70
2017-10-20T03:09:47.544Z,35.00
2017-10-20T03:12:14.573Z,35.00
2017-10-20T03:14:41.611Z,35.00
2017-10-20T03:17:08.006Z,35.00
2017-10-20T03:19:34.510Z,34.50
2017-10-20T03:22:00.811Z,34.90
2017-10-20T03:24:27.907Z,34.30
2017-10-20T03:26:54.915Z,34.10
2017-10-20T03:29:21.738Z,34.10
2017-10-20T03:31:48.583Z,33.90
2017-10-20T03:34:15.435Z,34.30
2017-10-20T03:36:41.558Z,34.20
2017-10-20T03:39:08.437Z,33.60
2017-10-20T03:41:34.543Z,33.50
2017-10-20T03:44:00.614Z,33.70
2017-10-20T03:46:26.734Z,34.10
2017-10-20T03:48:53.593Z,34.10
2017-10-20T03:51:19.673Z,34.10
2017-10-20T03:53:45.791Z,34.90
2017-10-20T03:56:11.899Z,33.60
2017-10-20T03:58:38.073Z,34.60
2017-10-20T04:01:05.019Z,34.70
2017-10-20T04:03:31.279Z,34.20
2017-10-20T04:05:58.335Z,33.80
2017-10-20T04:08:25.445Z,34.80
2017-10-20T04:10:51.547Z,34.70
2017-10-20T04:13:17.921Z,35.40
2017-10-20T04:15:45.019Z,34.80
2017-10-20T04:18:11.338Z,34.80
2017-10-20T04:20:37.635Z,35.50
2017-10-20T04:23:04.676Z,33.80
2017-10-20T04:25:30.946Z,33.70
2017-10-20T04:27:57.305Z,34.60
2017-10-20T04:30:23.634Z,33.60
2017-10-20T04:32:49.953Z,33.80
2017-10-20T04:35:16.263Z,34.40
2017-10-20T04:37:42.612Z,33.70
2017-10-20T04:40:08.893Z,34.40
2017-10-20T04:42:35.455Z,34.10
2017-10-20T04:45:01.832Z,33.30
2017-10-20T04:47:28.115Z,34.10
2017-10-20T04:49:54.397Z,33.90
2017-10-20T04:52:20.703Z,33.50
2017-10-20T04:54:46.971Z,33.90
2017-10-20T04:57:13.328Z,33.90
2017-10-20T04:59:39.669Z,34.00
2017-10-20T05:02:05.965Z,34.90
2017-10-20T05:04:32.260Z,35.30
2017-10-20T05:06:58.543Z,37.90
2017-10-20T05:09:24.817Z,40.00
2017-10-20T05:11:51.119Z,42.00
2017-10-20T05:14:17.608Z,43.50
2017-10-20T05:16:43.894Z,43.40
2017-10-20T05:19:10.202Z,44.10
2017-10-20T05:21:36.470Z,47.50
2017-10-20T05:24:02.738Z,48.70
2017-10-20T05:26:29.071Z,52.10
2017-10-20T05:28:55.329Z,53.10
2017-10-20T05:31:21.610Z,55.70
2017-10-20T05:33:47.900Z,58.20
2017-10-20T05:36:14.276Z,60.10
2017-10-20T05:38:40.610Z,62.50
2017-10-20T05:41:06.916Z,64.70
2017-10-20T05:43:33.202Z,65.10
2017-10-20T05:45:59.475Z,67.50
2017-10-20T05:48:25.758Z,67.60
2017-10-20T05:50:52.833Z,72.20
2017-10-20T05:53:19.900Z,73.00
2017-10-20T05:55:46.309Z,73.00
2017-10-20T05:58:12.573Z,74.10
2017-10-20T06:00:38.878Z,74.50
2017-10-20T06:03:05.874Z,77.00
2017-10-20T06:05:32.131Z,77.00
2017-10-20T06:07:58.427Z,78.50
2017-10-20T06:10:24.733Z,78.40
2017-10-20T06:12:51.762Z,79.50
2017-10-20T06:15:18.059Z,80.10
2017-10-20T06:17:44.342Z,80.00
2017-10-20T06:20:10.614Z,80.00
2017-10-20T06:22:36.885Z,79.90
2017-10-20T06:25:03.171Z,79.00
2017-10-20T06:27:29.455Z,80.00
2017-10-20T06:29:55.731Z,79.70
2017-10-20T06:32:22.023Z,79.30
2017-10-20T06:34:48.321Z,79.00
2017-10-20T06:37:15.948Z,78.90
2017-10-20T06:39:42.222Z,78.80
2017-10-20T06:42:09.687Z,79.50
2017-10-20T06:44:36.834Z,79.50
2017-10-20T06:47:02.914Z,79.20
2017-10-20T06:49:29.758Z,79.80
2017-10-20T06:51:56.789Z,79.90
2017-10-20T06:54:23.642Z,80.00
2017-10-20T06:56:50.559Z,78.70
2017-10-20T06:59:16.626Z,78.70
2017-10-20T07:01:42.856Z,81.20
2017-10-20T07:04:09.151Z,79.70
2017-10-20T07:06:36.300Z,81.60
2017-10-20T07:09:02.595Z,81.50
2017-10-20T07:11:28.868Z,80.00
2017-10-20T07:13:57.043Z,80.20
2017-10-20T07:16:23.867Z,78.40
2017-10-20T07:18:56.919Z,78.70
2017-10-20T07:21:23.242Z,78.70
2017-10-20T07:23:49.567Z,78.30
2017-10-20T07:26:19.627Z,76.90
2017-10-20T07:28:45.976Z,75.60
2017-10-20T07:31:12.273Z,78.20
2017-10-20T07:33:38.588Z,76.00
2017-10-20T07:36:05.056Z,75.70
2017-10-20T07:38:33.294Z,75.40
2017-10-20T07:40:59.559Z,75.40
2017-10-20T07:43:25.875Z,76.10
2017-10-20T07:45:52.110Z,74.90
2017-10-20T07:48:19.153Z,75.30
2017-10-20T07:50:45.464Z,75.20
2017-10-20T07:53:12.475Z,75.90
2017-10-20T07:55:38.766Z,74.40
2017-10-20T07:58:05.400Z,73.60
2017-10-20T08:00:31.683Z,71.90
2017-10-20T08:02:57.970Z,74.20
2017-10-20T08:05:24.983Z,70.90
2017-10-20T08:07:51.262Z,70.90
2017-10-20T08:10:17.697Z,68.80
2017-10-20T08:12:44.011Z,71.30
2017-10-20T08:15:10.323Z,70.50
2017-10-20T08:17:36.573Z,71.20
2017-10-20T08:20:03.605Z,68.40
2017-10-20T08:22:31.710Z,68.00
2017-10-20T08:24:57.991Z,68.00
2017-10-20T08:27:24.262Z,69.40
2017-10-20T08:29:50.584Z,68.20
2017-10-20T08:32:16.871Z,66.80
2017-10-20T08:34:43.147Z,67.60
2017-10-20T08:37:09.435Z,66.90
2017-10-20T08:39:36.447Z,66.40
2017-10-20T08:42:02.776Z,66.40
2017-10-20T08:44:29.075Z,67.30
2017-10-20T08:46:55.403Z,67.40
2017-10-20T08:49:21.694Z,67.20
2017-10-20T08:51:48.004Z,66.40
2017-10-20T08:54:14.303Z,67.60
2017-10-20T08:56:40.632Z,67.00
2017-10-20T08:59:07.622Z,67.30
2017-10-20T09:01:33.863Z,67.00
2017-10-20T09:04:00.858Z,66.10
2017-10-20T09:06:27.129Z,66.10
2017-10-20T09:08:53.502Z,65.60
2017-10-20T09:11:19.770Z,65.70
2017-10-20T09:13:46.813Z,66.30
2017-10-20T09:16:13.094Z,65.90
2017-10-20T09:18:39.343Z,66.70
2017-10-20T09:21:05.594Z,64.50
2017-10-20T09:23:32.676Z,63.90
2017-10-20T09:25:59.738Z,63.70
2017-10-20T09:28:26.020Z,63.30
2017-10-20T09:30:52.283Z,64.50
2017-10-20T09:33:18.538Z,64.10
2017-10-20T09:35:44.816Z,65.40
2017-10-20T09:38:11.836Z,70.40
2017-10-20T09:40:38.138Z,71.10
2017-10-20T09:43:04.434Z,71.40
2017-10-20T09:45:30.735Z,72.90
2017-10-20T09:47:57.036Z,71.30
2017-10-20T09:50:23.419Z,72.20
2017-10-20T09:52:49.695Z,72.60
2017-10-20T09:55:15.944Z,71.90
2017-10-20T09:57:42.231Z,74.00
2017-10-20T10:00:08.511Z,74.70
2017-10-20T10:02:35.523Z,74.90
2017-10-20T10:05:06.551Z,75.80
2017-10-20T10:07:32.828Z,75.10
2017-10-20T10:09:59.116Z,74.50
2017-10-20T10:12:25.414Z,73.50
2017-10-20T10:14:51.805Z,74.90
2017-10-20T10:17:18.847Z,76.90
2017-10-20T10:19:45.110Z,76.90
2017-10-20T10:22:11.408Z,83.00
2017-10-20T10:24:37.695Z,78.30
2017-10-20T10:27:03.977Z,72.30
2017-10-20T10:29:31.011Z,68.70
2017-10-20T10:31:57.303Z,68.70
2017-10-20T10:34:23.602Z,63.70
2017-10-20T10:36:50.614Z,62.00
2017-10-20T10:39:17.639Z,63.00
2017-10-20T10:41:49.774Z,62.90
2017-10-20T10:44:16.157Z,63.70
2017-10-20T10:46:43.230Z,61.20
2017-10-20T10:49:11.654Z,60.70
2017-10-20T10:51:38.971Z,63.00
2017-10-20T10:54:05.267Z,61.70
2017-10-20T10:56:32.281Z,63.60
2017-10-20T10:59:02.003Z,63.40
2017-10-20T11:01:28.255Z,62.80
2017-10-20T11:03:55.287Z,61.00
2017-10-20T11:06:34.575Z,61.30
2017-10-20T11:09:13.194Z,61.10
2017-10-20T11:11:51.714Z,57.00
2017-10-20T11:14:18.010Z,55.50
2017-10-20T11:16:44.304Z,54.40
2017-10-20T11:19:11.400Z,50.90
2017-10-20T11:21:38.400Z,50.80
2017-10-20T11:24:05.435Z,50.20
2017-10-20T11:26:31.738Z,50.00
2017-10-20T11:28:58.046Z,48.70
2017-10-20T11:31:24.313Z,50.00
2017-10-20T11:33:50.598Z,49.00
2017-10-20T11:36:16.944Z,46.50
2017-10-20T11:38:43.214Z,49.20
2017-10-20T11:41:09.490Z,46.50
2017-10-20T11:43:35.775Z,46.60
2017-10-20T11:46:02.794Z,47.70
2017-10-20T11:48:29.150Z,47.60
2017-10-20T11:50:56.200Z,47.10
2017-10-20T11:53:22.481Z,46.80
2017-10-20T11:55:48.784Z,47.70
2017-10-20T11:58:15.073Z,47.90
2017-10-20T12:00:41.369Z,48.60
2017-10-20T12:03:08.607Z,47.20
2017-10-20T12:05:34.914Z,47.20
2017-10-20T12:08:01.215Z,46.90
2017-10-20T12:10:28.231Z,43.20
2017-10-20T12:12:54.581Z,43.10
2017-10-20T12:15:21.608Z,43.90
2017-10-20T12:17:47.921Z,43.10
2017-10-20T12:20:14.176Z,41.50
2017-10-20T12:22:40.462Z,42.30
2017-10-20T12:25:06.759Z,42.30
2017-10-20T12:27:33.774Z,40.80
2017-10-20T12:30:00.776Z,40.30
2017-10-20T12:32:28.860Z,39.80
2017-10-20T12:34:55.158Z,39.70
2017-10-20T12:37:30.558Z,41.20
2017-10-20T12:39:56.827Z,41.80
2017-10-20T12:42:23.833Z,42.50
2017-10-20T12:44:50.113Z,42.40
2017-10-20T12:47:16.409Z,42.80
2017-10-20T12:49:43.424Z,41.70
2017-10-20T12:52:09.731Z,41.60
2017-10-20T12:54:36.065Z,41.10
2017-10-20T12:57:02.466Z,42.50
2017-10-20T12:59:29.488Z,40.80
2017-10-20T13:01:56.513Z,39.70
2017-10-20T13:04:22.843Z,39.60
2017-10-20T13:06:49.198Z,40.90
2017-10-20T13:09:16.226Z,40.60
2017-10-20T13:11:42.598Z,40.50
2017-10-20T13:14:08.889Z,42.00
2017-10-20T13:16:36.246Z,41.90
2017-10-20T13:19:02.530Z,41.00
2017-10-20T13:21:28.859Z,43.10
2017-10-20T13:23:55.174Z,41.60
2017-10-20T13:26:21.456Z,41.10
2017-10-20T13:28:47.690Z,41.70
2017-10-20T13:31:14.805Z,43.30
2017-10-20T13:33:41.166Z,43.20
2017-10-20T13:36:07.458Z,42.50
2017-10-20T13:38:33.771Z,43.10
2017-10-20T13:41:00.052Z,42.30
2017-10-20T13:43:27.067Z,43.10
2017-10-20T13:45:53.340Z,43.20
2017-10-20T13:48:20.389Z,41.90
2017-10-20T13:50:47.353Z,42.10
2017-10-20T13:53:13.639Z,42.00
2017-10-20T13:55:39.919Z,42.20
2017-10-20T13:58:06.188Z,42.10
2017-10-20T14:00:32.478Z,43.20
2017-10-20T14:02:58.762Z,42.00
2017-10-20T14:05:25.789Z,42.00
2017-10-20T14:07:52.035Z,42.00
2017-10-20T14:10:18.287Z,42.10
2017-10-20T14:12:44.533Z,42.20
2017-10-20T14:15:10.861Z,42.30
2017-10-20T14:17:37.151Z,42.10
2017-10-20T14:20:04.157Z,44.40
2017-10-20T14:22:30.443Z,44.10
2017-10-20T14:24:56.730Z,43.00
2017-10-20T14:27:23.062Z,42.30
2017-10-20T14:29:49.307Z,43.30
2017-10-20T14:32:15.570Z,41.80
2017-10-20T14:34:41.826Z,41.80
2017-10-20T14:37:08.111Z,41.80
2017-10-20T14:39:34.378Z,41.80
2017-10-20T14:42:00.651Z,42.00
2017-10-20T14:44:26.800Z,41.70
2017-10-20T14:46:52.903Z,41.70
2017-10-20T14:49:19.706Z,41.50
2017-10-20T14:51:45.767Z,41.50
2017-10-20T14:54:12.762Z,41.60
2017-10-20T14:56:39.112Z,41.60
2017-10-20T14:59:05.370Z,41.60
2017-10-20T15:01:32.389Z,42.60
2017-10-20T15:03:58.674Z,42.50
2017-10-20T15:06:24.958Z,42.90
2017-10-20T15:08:51.181Z,41.70
2017-10-20T15:11:17.435Z,42.00
2017-10-20T15:13:43.755Z,42.40
2017-10-20T15:16:11.023Z,42.70
2017-10-20T15:18:37.304Z,42.70
2017-10-20T15:21:03.642Z,43.10
2017-10-20T15:23:29.891Z,44.10
2017-10-20T15:25:56.138Z,43.80
2017-10-20T15:28:22.451Z,43.80
2017-10-20T15:30:49.446Z,46.20
2017-10-20T15:33:15.708Z,46.20
2017-10-20T15:35:42.004Z,45.80
2017-10-20T15:38:08.286Z,47.10
2017-10-20T15:40:36.910Z,48.50
2017-10-20T15:43:03.951Z,47.30
2017-10-20T15:45:30.287Z,48.50
2017-10-20T15:47:57.318Z,48.10
2017-10-20T15:50:23.683Z,48.10
2017-10-20T15:52:50.710Z,48.60
2017-10-20T15:55:16.771Z,48.20
2017-10-20T15:57:43.579Z,48.50
2017-10-20T16:00:09.774Z,48.50
2017-10-20T16:02:36.142Z,47.90
2017-10-20T16:05:02.424Z,48.00
2017-10-20T16:07:28.701Z,48.50
2017-10-20T16:09:55.734Z,47.90
2017-10-20T16:12:22.034Z,48.50
2017-10-20T16:14:50.222Z,48.30
2017-10-20T16:17:16.593Z,48.30
2017-10-20T16:19:42.840Z,48.00
2017-10-20T16:22:09.179Z,48.40
2017-10-20T16:24:36.568Z,48.80
2017-10-20T16:27:03.923Z,48.90
2017-10-20T16:29:30.207Z,48.60
2017-10-20T16:31:56.483Z,48.90
2017-10-20T16:34:22.735Z,49.50
2017-10-20T16:36:49.789Z,48.90
2017-10-20T16:39:16.387Z,48.70
2017-10-20T16:41:42.810Z,48.80
2017-10-20T16:44:09.079Z,49.30
2017-10-20T16:46:35.379Z,48.40
2017-10-20T16:49:01.621Z,48.70
2017-10-20T16:51:27.908Z,48.40
2017-10-20T16:53:54.198Z,48.20
2017-10-20T16:56:21.252Z,48.40
2017-10-20T16:58:47.783Z,48.40
2017-10-20T17:01:14.094Z,48.20
2017-10-20T17:03:40.386Z,48.10
2017-10-20T17:06:06.645Z,48.00
2017-10-20T17:08:33.001Z,48.50
2017-10-20T17:11:00.013Z,48.10
2017-10-20T17:13:26.304Z,48.10
2017-10-20T17:15:53.679Z,48.30
2017-10-20T17:18:19.969Z,48.60
2017-10-20T17:20:46.315Z,47.70
2017-10-20T17:23:12.619Z,47.80
2017-10-20T17:25:39.623Z,47.60
2017-10-20T17:28:05.911Z,47.60
2017-10-20T17:30:32.255Z,47.60
2017-10-20T17:32:58.519Z,47.30
2017-10-20T17:35:25.619Z,46.50
2017-10-20T17:37:51.904Z,46.50
2017-10-20T17:40:18.230Z,47.30
2017-10-20T17:42:44.499Z,46.60
2017-10-20T17:45:10.810Z,46.50
2017-10-20T17:47:38.714Z,47.30
2017-10-20T17:50:05.031Z,46.30
2017-10-20T17:52:31.291Z,46.50
2017-10-20T17:54:57.560Z,46.50
2017-10-20T17:57:24.924Z,46.70
2017-10-20T17:59:51.410Z,46.50
2017-10-20T18:02:17.830Z,46.40
2017-10-20T18:04:44.137Z,46.30
2017-10-20T18:07:10.389Z,46.30
2017-10-20T18:09:36.666Z,46.30
2017-10-20T18:12:02.962Z,46.30
2017-10-20T18:14:29.335Z,47.00
2017-10-20T18:16:55.734Z,46.30
2017-10-20T18:19:23.121Z,46.30
2017-10-20T18:21:50.232Z,46.30
2017-10-20T18:24:16.620Z,46.20
2017-10-20T18:26:42.945Z,46.30
2017-10-20T18:29:09.226Z,46.30
2017-10-20T18:31:36.331Z,46.30
2017-10-20T18:34:02.633Z,46.30
2017-10-20T18:36:28.936Z,46.30
2017-10-20T18:38:55.975Z,46.50
2017-10-20T18:41:22.675Z,46.60
2017-10-20T18:43:49.424Z,46.00
2017-10-20T18:46:15.742Z,45.50
2017-10-20T18:48:42.011Z,46.70
2017-10-20T18:51:09.030Z,46.10
2017-10-20T18:53:35.734Z,46.10
2017-10-20T18:56:02.047Z,45.30
2017-10-20T18:58:28.341Z,45.80
2017-10-20T19:00:54.588Z,44.90
2017-10-20T19:03:21.614Z,45.60
2017-10-20T19:05:47.894Z,45.60
2017-10-20T19:08:14.196Z,45.00
2017-10-20T19:10:41.194Z,45.40
2017-10-20T19:13:07.711Z,46.10
2017-10-20T19:15:41.815Z,44.30
2017-10-20T19:18:07.938Z,44.20
2017-10-20T19:20:34.011Z,44.50
2017-10-20T19:23:00.849Z,44.20
2017-10-20T19:25:28.749Z,44.80
2017-10-20T19:27:54.895Z,44.00
2017-10-20T19:30:21.010Z,43.40
2017-10-20T19:32:47.086Z,43.90
2017-10-20T19:35:13.884Z,43.70
2017-10-20T19:37:39.973Z,43.70
2017-10-20T19:40:06.913Z,44.10
2017-10-20T19:42:33.027Z,43.60
2017-10-20T19:44:59.864Z,43.90
2017-10-20T19:47:26.761Z,43.50
2017-10-20T19:49:53.361Z,43.30
2017-10-20T19:52:19.740Z,43.30
2017-10-20T19:54:48.523Z,43.20
2017-10-20T19:57:14.809Z,43.10
2017-10-20T19:59:41.728Z,43.20
2017-10-20T20:02:09.088Z,42.90
2017-10-20T20:04:35.868Z,42.80
2017-10-20T20:07:02.513Z,42.30
2017-10-20T20:09:29.053Z,42.50
2017-10-20T20:11:55.636Z,43.20
2017-10-20T20:14:21.939Z,43.90
2017-10-20T20:16:49.664Z,42.90
2017-10-20T20:19:15.792Z,42.80
2017-10-20T20:21:41.924Z,42.90
2017-10-20T20:24:08.848Z,43.00
2017-10-20T20:26:36.018Z,43.00
2017-10-20T20:29:02.130Z,42.50
2017-10-20T20:31:28.302Z,41.80
2017-10-20T20:33:55.910Z,42.40
2017-10-20T20:36:22.174Z,42.30
2017-10-20T20:38:48.482Z,42.40
2017-10-20T20:41:14.745Z,42.80
2017-10-20T20:43:41.046Z,42.60
2017-10-20T20:46:07.447Z,42.40
2017-10-20T20:48:33.751Z,42.70
2017-10-20T20:51:00.082Z,43.20
2017-10-20T20:53:27.469Z,43.30
2017-10-20T20:55:53.725Z,43.30
2017-10-20T20:58:21.087Z,42.70
2017-10-20T21:00:47.416Z,43.10
2017-10-20T21:03:14.489Z,42.90
2017-10-20T21:05:41.385Z,43.10
2017-10-20T21:08:07.583Z,43.00
2017-10-20T21:10:33.699Z,43.10
2017-10-20T21:13:00.019Z,43.00
2017-10-20T21:15:26.158Z,43.20
2017-10-20T21:17:52.458Z,43.90
2017-10-20T21:20:18.752Z,43.10
2017-10-20T21:22:45.026Z,43.50
2017-10-20T21:25:12.046Z,44.20
2017-10-20T21:27:38.406Z,44.30
2017-10-20T21:30:04.778Z,43.60
2017-10-20T21:32:31.235Z,44.30
2017-10-20T21:34:57.508Z,44.00
2017-10-20T21:37:23.757Z,44.00
2017-10-20T21:39:50.024Z,44.20
2017-10-20T21:42:16.405Z,44.20
2017-10-20T21:44:42.715Z,44.50
2017-10-20T21:47:09.009Z,44.50
2017-10-20T21:49:35.274Z,45.30
2017-10-20T21:52:01.594Z,45.50
2017-10-20T21:54:27.894Z,45.10
2017-10-20T21:56:54.279Z,45.40
2017-10-20T21:59:20.567Z,45.60
2017-10-20T22:01:47.610Z,46.00
2017-10-20T22:04:14.850Z,45.80
2017-10-20T22:06:41.666Z,45.80
2017-10-20T22:09:07.867Z,45.70
2017-10-20T22:11:34.058Z,46.00
2017-10-20T22:14:00.888Z,46.70
2017-10-20T22:16:27.838Z,46.30
2017-10-20T22:18:54.646Z,46.40
2017-10-20T22:21:20.841Z,46.30
2017-10-20T22:23:46.917Z,46.50
2017-10-20T22:26:13.710Z,46.50
2017-10-20T22:28:39.776Z,46.40
2017-10-20T22:31:06.606Z,46.80
2017-10-20T22:33:32.870Z,46.80
2017-10-20T22:35:59.005Z,47.00
2017-10-20T22:38:25.075Z,46.60
2017-10-20T22:40:51.316Z,46.30
2017-10-20T22:43:17.402Z,46.40
2017-10-20T22:45:43.658Z,46.90
2017-10-20T22:48:09.924Z,46.50
2017-10-20T22:50:36.306Z,46.90
2017-10-20T22:53:02.583Z,47.20
2017-10-20T22:55:28.857Z,47.10
2017-10-20T22:57:55.642Z,47.20
2017-10-20T23:00:22.752Z,47.70
2017-10-20T23:02:49.026Z,47.70
2017-10-20T23:05:16.090Z,47.50
2017-10-20T23:07:42.402Z,47.50
2017-10-20T23:10:09.387Z,47.30
2017-10-20T23:12:35.549Z,47.60
2017-10-20T23:15:02.442Z,48.10
2017-10-20T23:17:28.514Z,48.00
2017-10-20T23:19:55.318Z,48.40
2017-10-20T23:22:21.391Z,48.40
2017-10-20T23:24:47.584Z,48.90
2017-10-20T23:27:13.839Z,48.60
2017-10-20T23:29:41.134Z,48.70
2017-10-20T23:32:07.234Z,49.80
2017-10-20T23:34:33.571Z,49.60
2017-10-20T23:36:59.855Z,49.30
2017-10-20T23:39:26.431Z,49.40
2017-10-20T23:41:53.562Z,49.70
2017-10-20T23:44:19.818Z,49.70
2017-10-20T23:46:45.922Z,49.20
2017-10-20T23:49:12.278Z,50.70
2017-10-20T23:51:39.630Z,49.40
2017-10-20T23:54:06.091Z,50.10
2017-10-20T23:56:32.551Z,50.20
2017-10-20T23:58:59.744Z,50.30
